createdAt,value
2023-01-07T00:01:20.678Z,12.30
2023-01-07T00:03:49.076Z,11.98
2023-01-07T00:06:20.349Z,11.95
2023-01-07T00:08:48.717Z,17.17
2023-01-07T00:11:17.876Z,18.40
2023-01-07T00:13:45.131Z,13.80
2023-01-07T00:16:14.631Z,14.50
2023-01-07T00:18:42.492Z,14.38
2023-01-07T00:21:12.747Z,11.13
2023-01-07T00:23:41.496Z,14.35
2023-01-07T00:26:10.552Z,9.02
2023-01-07T00:28:40.153Z,10.82
2023-01-07T00:31:09.349Z,15.02
2023-01-07T00:33:36.291Z,11.80
2023-01-07T00:36:08.388Z,14.25
2023-01-07T00:38:36.182Z,12.98
2023-01-07T00:41:03.827Z,14.57
2023-01-07T00:43:30.658Z,11.45
2023-01-07T00:45:57.939Z,12.40
2023-01-07T00:48:25.283Z,10.82
2023-01-07T00:50:53.589Z,10.02
2023-01-07T00:53:21.537Z,11.10
2023-01-07T00:55:49.932Z,10.60
2023-01-07T00:58:26.337Z,8.40
2023-01-07T01:00:57.924Z,12.27
2023-01-07T01:03:25.408Z,8.98
2023-01-07T01:05:52.627Z,9.65
2023-01-07T01:08:20.516Z,11.40
2023-01-07T01:10:48.016Z,11.88
2023-01-07T01:13:18.410Z,13.35
2023-01-07T01:15:49.672Z,13.82
2023-01-07T01:18:16.580Z,14.95
2023-01-07T01:20:43.437Z,13.95
2023-01-07T01:23:10.296Z,20.77
2023-01-07T01:25:36.993Z,18.27
2023-01-07T01:28:03.908Z,20.30
2023-01-07T01:30:30.485Z,14.50
2023-01-07T01:32:57.140Z,16.75
2023-01-07T01:35:23.953Z,21.15
2023-01-07T01:37:50.587Z,19.80
2023-01-07T01:40:17.283Z,20.60
2023-01-07T01:42:43.957Z,17.05
2023-01-07T01:45:12.137Z,16.48
2023-01-07T01:47:57.196Z,16.52
2023-01-07T01:50:29.404Z,17.23
2023-01-07T01:53:01.828Z,16.63
2023-01-07T01:55:36.712Z,19.95
2023-01-07T01:58:08.069Z,19.60
2023-01-07T02:00:35.675Z,17.23
2023-01-07T02:03:03.226Z,17.92
2023-01-07T02:05:37.769Z,16.40
2023-01-07T02:08:05.796Z,19.58
2023-01-07T02:10:33.313Z,14.80
2023-01-07T02:13:28.309Z,16.83
2023-01-07T02:16:32.143Z,18.08
2023-01-07T02:19:23.196Z,15.73
2023-01-07T02:21:59.353Z,16.83
2023-01-07T02:24:54.390Z,15.90
2023-01-07T02:27:30.100Z,13.25
2023-01-07T02:30:08.821Z,13.00
2023-01-07T02:32:57.205Z,13.55
2023-01-07T02:35:53.911Z,13.82
2023-01-07T02:38:32.754Z,12.48
2023-01-07T02:41:44.021Z,16.20
2023-01-07T02:44:30.098Z,15.88
2023-01-07T02:46:59.803Z,14.48
2023-01-07T02:49:26.580Z,15.85
2023-01-07T02:51:53.236Z,16.00
2023-01-07T02:54:23.643Z,13.68
2023-01-07T02:57:09.253Z,16.30
2023-01-07T02:59:42.522Z,15.48
2023-01-07T03:02:27.703Z,14.82
2023-01-07T03:05:25.515Z,13.88
2023-01-07T03:08:21.545Z,14.52
2023-01-07T03:10:53.488Z,15.63
2023-01-07T03:13:24.874Z,17.88
2023-01-07T03:16:08.960Z,18.33
2023-01-07T03:18:44.242Z,16.92
2023-01-07T03:21:15.290Z,20.10
2023-01-07T03:23:49.256Z,17.67
2023-01-07T03:26:20.522Z,19.33
2023-01-07T03:28:50.414Z,16.17
2023-01-07T03:31:20.375Z,12.73
2023-01-07T03:34:00.494Z,15.90
2023-01-07T03:36:39.489Z,14.65
2023-01-07T03:39:10.779Z,11.93
2023-01-07T03:41:59.435Z,15.25
2023-01-07T03:44:26.230Z,12.02
2023-01-07T03:46:53.685Z,12.05
2023-01-07T03:49:20.476Z,12.27
2023-01-07T03:51:49.722Z,9.77
2023-01-07T03:54:16.826Z,16.33
2023-01-07T03:56:43.498Z,9.68
2023-01-07T03:59:10.159Z,12.07
2023-01-07T04:01:37.098Z,7.63
2023-01-07T04:04:04.513Z,8.20
2023-01-07T04:06:32.520Z,8.43
2023-01-07T04:08:59.284Z,9.38
2023-01-07T04:11:26.171Z,11.32
2023-01-07T04:13:52.806Z,10.20
2023-01-07T04:16:19.475Z,10.80
2023-01-07T04:18:46.149Z,14.65
2023-01-07T04:21:12.849Z,17.15
2023-01-07T04:23:39.391Z,14.40
2023-01-07T04:26:06.089Z,16.60
2023-01-07T04:28:32.743Z,18.38
2023-01-07T04:31:00.064Z,18.83
2023-01-07T04:33:27.102Z,17.67
2023-01-07T04:35:53.690Z,21.48
2023-01-07T04:38:20.331Z,17.90
2023-01-07T04:40:47.117Z,13.55
2023-01-07T04:43:13.837Z,17.08
2023-01-07T04:45:40.860Z,19.35
2023-01-07T04:48:07.974Z,20.77
2023-01-07T04:50:34.608Z,19.35
2023-01-07T04:53:01.627Z,18.58
2023-01-07T04:55:28.314Z,20.15
2023-01-07T04:57:55.020Z,20.80
2023-01-07T05:00:22.157Z,29.05
2023-01-07T05:02:48.849Z,19.17
2023-01-07T05:05:15.575Z,20.95
2023-01-07T05:07:42.213Z,14.40
2023-01-07T05:10:09.416Z,16.48
2023-01-07T05:12:36.640Z,16.80
2023-01-07T05:15:04.609Z,12.93
2023-01-07T05:17:31.250Z,19.08
2023-01-07T05:19:57.819Z,15.77
2023-01-07T05:22:24.552Z,16.13
2023-01-07T05:24:51.128Z,19.55
2023-01-07T05:27:18.250Z,19.98
2023-01-07T05:29:44.872Z,15.45
2023-01-07T05:32:11.477Z,20.73
2023-01-07T05:34:38.025Z,19.42
2023-01-07T05:37:04.655Z,20.08
2023-01-07T05:39:31.390Z,18.25
2023-01-07T05:41:58.043Z,13.63
2023-01-07T05:44:24.885Z,15.30
2023-01-07T05:46:51.678Z,18.13
2023-01-07T05:49:18.729Z,16.30
2023-01-07T05:51:45.307Z,14.90
2023-01-07T05:54:12.358Z,16.27
2023-01-07T05:56:39.009Z,17.13
2023-01-07T05:59:05.935Z,15.85
2023-01-07T06:01:32.670Z,14.85
2023-01-07T06:03:59.893Z,12.88
2023-01-07T06:06:26.577Z,10.52
2023-01-07T06:08:53.552Z,18.10
2023-01-07T06:11:20.257Z,17.77
2023-01-07T06:13:47.353Z,16.25
2023-01-07T06:16:14.493Z,13.02
2023-01-07T06:18:41.272Z,14.20
2023-01-07T06:21:08.143Z,10.05
2023-01-07T06:23:34.892Z,14.00
2023-01-07T06:26:01.527Z,19.15
2023-01-07T06:28:29.049Z,12.70
2023-01-07T06:30:55.758Z,12.95
2023-01-07T06:33:22.569Z,12.00
2023-01-07T06:35:49.243Z,13.05
2023-01-07T06:38:15.927Z,15.15
2023-01-07T06:40:44.799Z,18.77
2023-01-07T06:43:11.449Z,15.80
2023-01-07T06:45:39.521Z,24.13
2023-01-07T06:48:07.986Z,13.43
2023-01-07T06:50:34.733Z,11.15
2023-01-07T06:53:01.384Z,21.45
2023-01-07T06:55:28.129Z,17.10
2023-01-07T06:57:54.875Z,16.15
2023-01-07T07:00:21.599Z,22.48
2023-01-07T07:02:48.379Z,30.95
2023-01-07T07:05:15.524Z,37.30
2023-01-07T07:07:42.190Z,17.10
2023-01-07T07:10:09.496Z,25.17
2023-01-07T07:12:38.036Z,31.65
2023-01-07T07:15:06.752Z,15.02
2023-01-07T07:17:34.149Z,16.35
2023-01-07T07:20:00.808Z,17.55
2023-01-07T07:22:27.428Z,10.27
2023-01-07T07:24:54.010Z,12.65
2023-01-07T07:27:20.810Z,18.48
2023-01-07T07:29:47.454Z,13.93
2023-01-07T07:32:14.149Z,10.43
2023-01-07T07:34:40.785Z,11.20
2023-01-07T07:37:07.565Z,12.32
2023-01-07T07:39:34.435Z,20.38
2023-01-07T07:42:05.022Z,23.45
2023-01-07T07:44:31.632Z,29.00
2023-01-07T07:46:59.123Z,32.75
2023-01-07T07:49:25.767Z,30.50
2023-01-07T07:51:52.783Z,29.02
2023-01-07T07:54:19.473Z,26.48
2023-01-07T07:56:46.596Z,23.40
2023-01-07T07:59:13.289Z,29.52
2023-01-07T08:01:40.031Z,24.50
2023-01-07T08:04:06.947Z,27.73
2023-01-07T08:06:34.452Z,25.55
2023-01-07T08:09:01.391Z,23.05
2023-01-07T08:11:28.173Z,20.65
2023-01-07T08:13:54.798Z,20.38
2023-01-07T08:16:21.592Z,20.33
2023-01-07T08:18:48.201Z,16.83
2023-01-07T08:21:14.868Z,18.10
2023-01-07T08:23:41.463Z,22.67
2023-01-07T08:26:08.077Z,19.52
2023-01-07T08:28:34.946Z,15.40
2023-01-07T08:31:04.242Z,10.35
2023-01-07T08:33:34.180Z,16.25
2023-01-07T08:36:00.820Z,17.50
2023-01-07T08:38:31.716Z,11.98
2023-01-07T08:40:59.635Z,17.02
2023-01-07T08:43:26.349Z,17.15
2023-01-07T08:45:54.116Z,13.13
2023-01-07T08:48:20.869Z,15.93
2023-01-07T08:50:52.952Z,14.40
2023-01-07T08:53:21.016Z,14.85
2023-01-07T08:55:47.611Z,17.40
2023-01-07T08:58:14.463Z,17.20
2023-01-07T09:00:42.037Z,17.25
2023-01-07T09:03:08.804Z,18.02
2023-01-07T09:05:36.045Z,16.58
2023-01-07T09:08:04.015Z,17.50
2023-01-07T09:10:31.119Z,19.40
2023-01-07T09:12:58.223Z,23.27
2023-01-07T09:15:25.252Z,23.58
2023-01-07T09:17:51.982Z,20.55
2023-01-07T09:20:19.298Z,30.75
2023-01-07T09:22:46.565Z,22.48
2023-01-07T09:25:13.564Z,24.25
2023-01-07T09:27:40.693Z,23.30
2023-01-07T09:30:09.485Z,23.10
2023-01-07T09:32:36.469Z,23.08
2023-01-07T09:35:04.007Z,21.60
2023-01-07T09:37:30.564Z,19.75
2023-01-07T09:39:57.292Z,20.17
2023-01-07T09:42:42.825Z,18.27
2023-01-07T09:45:23.750Z,21.25
2023-01-07T09:47:57.322Z,20.13
2023-01-07T09:50:52.370Z,21.23
2023-01-07T09:53:34.668Z,22.60
2023-01-07T09:56:10.455Z,23.58
2023-01-07T09:58:46.269Z,22.35
2023-01-07T10:01:22.000Z,27.48
2023-01-07T10:04:12.566Z,26.77
2023-01-07T10:06:45.243Z,24.17
2023-01-07T10:09:26.300Z,24.83
2023-01-07T10:12:20.591Z,29.50
2023-01-07T10:15:11.841Z,21.45
2023-01-07T10:17:41.657Z,24.48
2023-01-07T10:20:27.033Z,28.48
2023-01-07T10:23:24.184Z,24.92
2023-01-07T10:25:54.008Z,24.08
2023-01-07T10:28:30.246Z,28.42
2023-01-07T10:30:59.107Z,23.13
2023-01-07T10:33:31.017Z,19.25
2023-01-07T10:36:06.733Z,19.27
2023-01-07T10:38:37.374Z,17.98
2023-01-07T10:41:22.762Z,21.98
2023-01-07T10:44:05.473Z,15.05
2023-01-07T10:46:53.124Z,15.27
2023-01-07T10:49:43.385Z,15.75
2023-01-07T10:52:26.964Z,15.70
2023-01-07T10:55:11.521Z,17.77
2023-01-07T10:57:39.167Z,14.98
2023-01-07T11:00:12.241Z,8.18
2023-01-07T11:02:42.942Z,7.50
2023-01-07T11:05:14.808Z,15.10
2023-01-07T11:07:56.056Z,5.25
2023-01-07T11:10:25.505Z,4.10
2023-01-07T11:13:16.178Z,7.38
2023-01-07T11:15:52.681Z,5.35
2023-01-07T11:18:29.260Z,9.55
2023-01-07T11:20:57.990Z,4.95
2023-01-07T11:23:43.863Z,3.97
2023-01-07T11:26:40.063Z,5.43
2023-01-07T11:29:23.124Z,8.18
2023-01-07T11:31:58.381Z,3.95
2023-01-07T11:34:28.148Z,2.08
2023-01-07T11:36:54.994Z,5.55
2023-01-07T11:39:29.434Z,4.07
2023-01-07T11:42:25.291Z,6.55
2023-01-07T11:45:09.969Z,2.60
2023-01-07T11:47:39.914Z,3.30
2023-01-07T11:50:09.557Z,2.55
2023-01-07T11:52:36.270Z,7.80
2023-01-07T11:55:03.010Z,2.65
2023-01-07T11:57:30.096Z,3.10
2023-01-07T12:00:17.696Z,3.17
2023-01-07T12:02:44.388Z,4.50
2023-01-07T12:05:26.438Z,3.25
2023-01-07T12:07:56.550Z,4.50
2023-01-07T12:10:29.863Z,4.82
2023-01-07T12:12:57.929Z,4.85
2023-01-07T12:15:31.391Z,8.68
2023-01-07T12:18:06.882Z,3.00
2023-01-07T12:20:49.718Z,4.43
2023-01-07T12:23:22.238Z,2.55
2023-01-07T12:26:10.529Z,2.30
2023-01-07T12:28:52.156Z,1.23
2023-01-07T12:31:32.315Z,5.13
2023-01-07T12:34:25.172Z,5.47
2023-01-07T12:37:02.033Z,7.28
2023-01-07T12:39:35.584Z,1.63
2023-01-07T12:42:13.291Z,1.40
2023-01-07T12:44:48.537Z,2.85
2023-01-07T12:47:32.147Z,6.88
2023-01-07T12:50:10.925Z,6.15
2023-01-07T12:52:52.749Z,2.92
2023-01-07T12:55:24.735Z,1.63
2023-01-07T12:57:57.043Z,1.90
2023-01-07T13:00:28.118Z,0.60
2023-01-07T13:03:18.448Z,2.10
2023-01-07T13:06:05.866Z,0.85
2023-01-07T13:08:35.188Z,0.93
2023-01-07T13:11:54.897Z,1.50
2023-01-07T13:14:26.112Z,2.40
2023-01-07T13:16:58.856Z,1.65
2023-01-07T13:19:25.650Z,1.58
2023-01-07T13:21:52.743Z,9.48
2023-01-07T13:24:55.109Z,1.70
2023-01-07T13:27:23.311Z,1.92
2023-01-07T13:30:10.928Z,2.17
2023-01-07T13:32:47.551Z,3.20
2023-01-07T13:35:33.618Z,0.98
2023-01-07T13:38:30.729Z,0.75
2023-01-07T13:41:18.732Z,2.70
2023-01-07T13:43:57.474Z,2.58
2023-01-07T13:46:36.365Z,2.60
2023-01-07T13:49:03.623Z,5.80
2023-01-07T13:51:34.312Z,1.27
2023-01-07T13:54:01.434Z,4.43
2023-01-07T13:56:31.921Z,2.00
2023-01-07T13:59:00.461Z,1.02
2023-01-07T14:01:29.237Z,1.48
2023-01-07T14:04:06.763Z,5.88
2023-01-07T14:06:53.653Z,1.27
2023-01-07T14:09:27.939Z,3.47
2023-01-07T14:12:16.671Z,1.05
2023-01-07T14:15:18.326Z,1.08
2023-01-07T14:18:06.878Z,0.70
2023-01-07T14:20:55.688Z,1.13
2023-01-07T14:23:22.229Z,2.63
2023-01-07T14:26:18.799Z,1.15
2023-01-07T14:29:07.713Z,3.95
2023-01-07T14:31:34.718Z,2.25
2023-01-07T14:34:08.926Z,3.72
2023-01-07T14:37:08.959Z,2.58
2023-01-07T14:39:46.111Z,10.10
2023-01-07T14:42:18.753Z,15.98
2023-01-07T14:44:46.657Z,11.63
2023-01-07T14:47:15.352Z,14.38
2023-01-07T14:50:04.838Z,14.73
2023-01-07T14:52:46.822Z,15.43
2023-01-07T14:55:31.405Z,18.58
2023-01-07T14:58:19.143Z,15.73
2023-01-07T15:00:48.386Z,19.35
2023-01-07T15:03:36.553Z,27.60
2023-01-07T15:06:15.196Z,18.13
2023-01-07T15:09:12.341Z,28.88
2023-01-07T15:12:00.828Z,25.38
2023-01-07T15:14:48.221Z,22.30
2023-01-07T15:17:16.566Z,23.58
2023-01-07T15:19:44.960Z,24.17
2023-01-07T15:22:41.531Z,30.30
2023-01-07T15:25:29.973Z,24.92
2023-01-07T15:28:01.396Z,27.80
2023-01-07T15:30:50.387Z,32.70
2023-01-07T15:33:41.227Z,25.75
2023-01-07T15:36:12.804Z,24.55
2023-01-07T15:38:44.465Z,26.17
2023-01-07T15:41:35.617Z,32.13
2023-01-07T15:44:05.576Z,29.13
2023-01-07T15:46:33.469Z,30.50
2023-01-07T15:49:15.955Z,34.67
2023-01-07T15:51:53.335Z,31.27
2023-01-07T15:54:35.033Z,37.45
2023-01-07T15:57:13.827Z,32.45
2023-01-07T15:59:45.983Z,36.25
2023-01-07T16:02:12.531Z,65.82
2023-01-07T16:04:42.098Z,41.83
2023-01-07T16:07:20.685Z,34.58
2023-01-07T16:09:47.648Z,31.75
2023-01-07T16:12:39.289Z,35.10
2023-01-07T16:15:36.057Z,38.35
2023-01-07T16:18:16.097Z,37.72
2023-01-07T16:20:56.568Z,32.67
2023-01-07T16:23:31.618Z,29.73
2023-01-07T16:26:01.674Z,32.00
2023-01-07T16:28:57.844Z,29.38
2023-01-07T16:31:27.549Z,29.52
2023-01-07T16:33:57.082Z,34.13
2023-01-07T16:36:29.795Z,36.17
2023-01-07T16:38:59.308Z,31.00
2023-01-07T16:41:28.817Z,39.47
2023-01-07T16:43:59.534Z,33.72
2023-01-07T16:46:33.121Z,40.65
2023-01-07T16:49:11.938Z,34.88
2023-01-07T16:51:40.972Z,34.90
2023-01-07T16:54:25.677Z,31.25
2023-01-07T16:57:02.550Z,32.42
2023-01-07T16:59:32.464Z,32.58
2023-01-07T17:02:10.604Z,31.38
2023-01-07T17:04:37.333Z,32.63
2023-01-07T17:07:04.328Z,25.25
2023-01-07T17:09:39.060Z,25.83
2023-01-07T17:12:05.956Z,28.95
2023-01-07T17:14:38.128Z,18.15
2023-01-07T17:17:09.010Z,19.40
2023-01-07T17:19:47.656Z,17.77
2023-01-07T17:22:31.470Z,22.65
2023-01-07T17:25:02.818Z,27.08
2023-01-07T17:27:31.008Z,26.45
2023-01-07T17:30:01.776Z,24.25
2023-01-07T17:32:29.714Z,28.80
2023-01-07T17:35:01.106Z,33.55
2023-01-07T17:37:27.739Z,26.73
2023-01-07T17:39:54.385Z,27.40
2023-01-07T17:42:47.829Z,28.55
2023-01-07T17:45:16.985Z,26.67
2023-01-07T17:47:43.831Z,22.35
2023-01-07T17:50:13.465Z,19.98
2023-01-07T17:52:42.741Z,25.73
2023-01-07T17:55:14.504Z,26.65
2023-01-07T17:57:41.378Z,27.85
2023-01-07T18:00:14.476Z,29.90
2023-01-07T18:02:41.250Z,23.98
2023-01-07T18:05:14.734Z,38.03
2023-01-07T18:07:41.340Z,25.92
2023-01-07T18:10:11.252Z,18.08
2023-01-07T18:12:40.021Z,23.88
2023-01-07T18:15:17.550Z,25.83
2023-01-07T18:17:45.126Z,21.85
2023-01-07T18:20:12.014Z,18.13
2023-01-07T18:22:38.776Z,18.05
2023-01-07T18:25:06.841Z,21.70
2023-01-07T18:27:33.435Z,26.27
2023-01-07T18:30:00.010Z,25.30
2023-01-07T18:32:26.606Z,21.80
2023-01-07T18:34:53.234Z,25.98
2023-01-07T18:37:19.833Z,32.67
2023-01-07T18:39:46.472Z,34.55
2023-01-07T18:42:13.777Z,34.30
2023-01-07T18:44:40.386Z,27.65
2023-01-07T18:47:06.979Z,31.20
2023-01-07T18:49:33.909Z,32.90
2023-01-07T18:52:00.890Z,39.47
2023-01-07T18:54:27.586Z,59.78
2023-01-07T18:56:54.158Z,62.38
2023-01-07T18:59:20.889Z,76.38
2023-01-07T19:01:47.562Z,85.10
2023-01-07T19:04:14.218Z,80.75
2023-01-07T19:06:40.845Z,78.82
2023-01-07T19:09:07.471Z,76.25
2023-01-07T19:11:34.116Z,79.97
2023-01-07T19:14:00.850Z,72.07
2023-01-07T19:16:27.884Z,90.20
2023-01-07T19:18:54.534Z,74.30
2023-01-07T19:21:21.601Z,72.03
2023-01-07T19:23:48.855Z,65.82
2023-01-07T19:26:15.512Z,65.38
2023-01-07T19:28:42.116Z,67.55
2023-01-07T19:31:10.669Z,89.68
2023-01-07T19:33:38.040Z,65.38
2023-01-07T19:36:10.353Z,63.28
2023-01-07T19:38:41.525Z,63.22
2023-01-07T19:41:14.111Z,71.53
2023-01-07T19:43:40.983Z,84.68
2023-01-07T19:46:08.335Z,67.35
2023-01-07T19:48:35.035Z,59.33
2023-01-07T19:51:03.491Z,53.95
2023-01-07T19:53:31.350Z,53.38
2023-01-07T19:56:03.583Z,54.53
2023-01-07T19:58:30.386Z,51.15
2023-01-07T20:01:09.066Z,48.55
2023-01-07T20:03:36.158Z,42.55
2023-01-07T20:06:03.863Z,62.95
2023-01-07T20:08:32.522Z,43.45
2023-01-07T20:11:00.305Z,40.30
2023-01-07T20:13:27.837Z,38.10
2023-01-07T20:15:54.970Z,45.67
2023-01-07T20:18:22.808Z,38.75
2023-01-07T20:21:00.039Z,45.95
2023-01-07T20:23:27.336Z,42.08
2023-01-07T20:25:53.967Z,36.40
2023-01-07T20:28:21.640Z,41.30
2023-01-07T20:30:48.296Z,42.55
2023-01-07T20:33:14.858Z,53.85
2023-01-07T20:35:43.264Z,41.42
2023-01-07T20:38:11.400Z,59.33
2023-01-07T20:40:42.380Z,73.65
2023-01-07T20:43:09.371Z,77.40
2023-01-07T20:45:38.407Z,84.22
2023-01-07T20:48:05.276Z,102.10
2023-01-07T20:50:32.996Z,105.32
2023-01-07T20:52:59.571Z,92.50
2023-01-07T20:55:26.207Z,88.60
2023-01-07T20:57:54.925Z,88.40
2023-01-07T21:00:21.623Z,99.38
2023-01-07T21:02:48.231Z,91.30
2023-01-07T21:05:20.125Z,87.72
2023-01-07T21:07:47.672Z,86.05
2023-01-07T21:10:14.896Z,85.45
2023-01-07T21:12:41.483Z,91.00
2023-01-07T21:15:08.670Z,85.15
2023-01-07T21:17:35.261Z,78.47
2023-01-07T21:20:01.809Z,85.25
2023-01-07T21:22:29.154Z,75.88
2023-01-07T21:24:55.751Z,81.47
2023-01-07T21:27:22.418Z,76.55
2023-01-07T21:29:51.024Z,75.80
2023-01-07T21:32:17.686Z,77.43
2023-01-07T21:34:44.215Z,73.20
2023-01-07T21:37:10.921Z,72.95
2023-01-07T21:39:39.927Z,73.72
2023-01-07T21:42:06.898Z,82.45
2023-01-07T21:44:33.848Z,76.82
2023-01-07T21:47:00.480Z,81.85
2023-01-07T21:49:27.147Z,78.03
2023-01-07T21:51:54.173Z,80.65
2023-01-07T21:54:20.959Z,89.72
2023-01-07T21:56:47.524Z,83.13
2023-01-07T21:59:14.219Z,90.50
2023-01-07T22:01:40.969Z,93.80
2023-01-07T22:04:07.675Z,89.90
2023-01-07T22:06:36.031Z,90.43
2023-01-07T22:09:05.795Z,90.00
2023-01-07T22:11:33.959Z,89.57
2023-01-07T22:14:00.994Z,95.20
2023-01-07T22:16:30.692Z,94.97
2023-01-07T22:18:57.820Z,97.93
2023-01-07T22:21:24.847Z,90.50
2023-01-07T22:23:52.292Z,89.40
2023-01-07T22:26:19.813Z,92.63
2023-01-07T22:28:51.306Z,101.70
2023-01-07T22:31:32.991Z,89.82
2023-01-07T22:33:59.796Z,91.85
2023-01-07T22:36:35.336Z,95.78
2023-01-07T22:39:05.835Z,94.85
2023-01-07T22:41:34.810Z,86.18
2023-01-07T22:44:06.382Z,77.28
2023-01-07T22:46:34.200Z,76.47
2023-01-07T22:49:00.800Z,74.22
2023-01-07T22:51:31.682Z,83.15
2023-01-07T22:54:00.538Z,73.63
2023-01-07T22:56:28.146Z,105.75
2023-01-07T22:58:54.774Z,91.32
2023-01-07T23:01:21.478Z,105.65
2023-01-07T23:03:48.214Z,83.60
2023-01-07T23:06:15.663Z,80.03
2023-01-07T23:08:42.871Z,92.72
2023-01-07T23:11:10.650Z,95.13
2023-01-07T23:13:37.628Z,94.80
2023-01-07T23:16:06.605Z,86.30
2023-01-07T23:18:33.325Z,93.38
2023-01-07T23:20:59.963Z,89.43
2023-01-07T23:23:26.542Z,85.15
2023-01-07T23:25:53.588Z,93.53
2023-01-07T23:28:20.175Z,88.55
2023-01-07T23:30:48.206Z,94.63
2023-01-07T23:33:14.855Z,87.50
2023-01-07T23:35:41.436Z,72.50
2023-01-07T23:38:08.074Z,79.18
2023-01-07T23:40:34.721Z,68.68
2023-01-07T23:43:01.311Z,67.22
2023-01-07T23:45:28.463Z,77.55
2023-01-07T23:47:55.061Z,62.78
2023-01-07T23:50:21.625Z,69.15
2023-01-07T23:52:48.191Z,78.05
2023-01-07T23:55:14.794Z,79.32
2023-01-07T23:57:41.517Z,75.88
